Emerald Coast — WDC9127 — position and weather

sailwx.info

Track history (hours):
 
Tides and Currents Weather Stations Pressure Air Temp Water Temp Dewpoint Dewpoint Depression Visibility Wind Speed Wind Dir Waves Ship Positions

Emerald Coast

Owner: Dann Marine Towing, LC, Chesapeake City, MD. More information available from US FCC via Universal Licensing System and Coast Guard Vessel Documentation Center.

Last reported at 2015-Jan-25 17:29 UTC. Time now 2015-Jan-25 20:26 UTC.
Position N 40°41' W 074°08'.

Length 120 m; draft 3 m.

Type: Towing. MMSI: 367097920.

Date/timePositionNaut miles runAvg speedWind from/ knotsBaromVisibWave heightAir tempDewpointWater temp
2015-Jan-25 17:29N 40°41' W 074°08'3 3.3
2015-Jan-25 16:33N 40°39' W 074°06'1 1.4
2015-Jan-25 15:33N 40°40' W 074°05'0 0.0
2015-Jan-25 14:33N 40°40' W 074°05'0 0.0
2015-Jan-25 13:33N 40°40' W 074°05'0 0.0
2015-Jan-25 12:33N 40°40' W 074°05'3 3.2
2015-Jan-25 11:33N 40°40' W 074°00'3 3.3
2015-Jan-25 10:33N 40°38' W 074°04'0 0.0
2015-Jan-25 09:33N 40°38' W 074°04'0 0.0
2015-Jan-25 08:33N 40°38' W 074°04'0 0.0
2015-Jan-25 07:33N 40°38' W 074°04'0 0.2
2015-Jan-25 06:33N 40°38' W 074°04'0 0.1
2015-Jan-25 05:33N 40°38' W 074°04'0 0.0
2015-Jan-25 04:33N 40°38' W 074°04'0 0.1
2015-Jan-25 03:33N 40°38' W 074°04'1 1.4
2015-Jan-25 02:33N 40°39' W 074°05'2 0.4
2015-Jan-24 21:31N 40°38' W 074°07'0 0.0
2015-Jan-24 19:20N 40°38' W 074°07'0 0.0
2015-Jan-24 18:26N 40°38' W 074°07'0 0.1
2015-Jan-24 17:31N 40°39' W 074°07'2 2.1
2015-Jan-24 16:33N 40°39' W 074°05'1 1.2
2015-Jan-24 15:33N 40°39' W 074°06'3 2.7
2015-Jan-24 14:33N 40°40' W 074°03'2 1.8
2015-Jan-24 13:33N 40°38' W 074°03'0 0.1
2015-Jan-24 12:33N 40°38' W 074°03'0 0.3
2015-Jan-24 11:33N 40°38' W 074°03'0 0.0
2015-Jan-24 10:33N 40°38' W 074°03'0 0.0
2015-Jan-24 09:33N 40°38' W 074°03'2 2.0
2015-Jan-24 08:33N 40°39' W 074°05'1 0.2
2015-Jan-24 03:30N 40°39' W 074°06'2 2.2
2015-Jan-24 02:33N 40°40' W 074°04'0 0.0
2015-Jan-24 01:33N 40°40' W 074°04'0 0.0
2015-Jan-24 00:33N 40°40' W 074°04'2 1.5
2015-Jan-23 23:33N 40°39' W 074°03'0 0.1
2015-Jan-23 22:32N 40°39' W 074°03'0 0.0
2015-Jan-23 21:33N 40°39' W 074°03'0 0.0
2015-Jan-23 20:33N 40°39' W 074°03'3 2.4
2015-Jan-23 19:28N 40°39' W 074°06'1 0.2
2015-Jan-23 16:08N 40°38' W 074°07'0 0.1
2015-Jan-23 15:19N 40°39' W 074°07'2 2.4
2015-Jan-23 14:33N 40°39' W 074°05'2 1.7
2015-Jan-23 13:33N 40°38' W 074°04'0 0.1
2015-Jan-23 12:33N 40°38' W 074°04'2 1.8
2015-Jan-23 11:33N 40°39' W 074°05'2 2.1
2015-Jan-23 10:33N 40°38' W 074°03'1 0.9
2015-Jan-23 09:33N 40°38' W 074°04'0 0.0
2015-Jan-23 08:33N 40°38' W 074°04'0 0.0
2015-Jan-23 07:33N 40°38' W 074°04'0 0.0
2015-Jan-23 06:33N 40°38' W 074°04'1 0.6
2015-Jan-23 05:33N 40°38' W 074°03'2 2.3
2015-Jan-23 04:33N 40°40' W 074°01'3 2.8
2015-Jan-23 03:33N 40°38' W 074°04'0 0.3
2015-Jan-23 02:33N 40°38' W 074°04'0 0.2
2015-Jan-23 01:33N 40°38' W 074°04'1 0.7
2015-Jan-23 00:33N 40°38' W 074°04'2 2.4
2015-Jan-22 23:33N 40°39' W 074°07'0 0.0
2015-Jan-21 15:16N 40°39' W 074°07'3 4.7
2015-Jan-21 14:33N 40°42' W 074°09'3 3.2
2015-Jan-21 13:33N 40°39' W 074°07'5 5.2
2015-Jan-21 12:33N 40°40' W 074°01'4 4.4
2015-Jan-21 11:33N 40°39' W 074°06'5 5.2
2015-Jan-21 10:32N 40°36' W 074°12'4 1.9
2015-Jan-21 08:33N 40°39' W 074°08'3 3.1
2015-Jan-21 07:33N 40°39' W 074°04'3 3.4
2015-Jan-21 06:33N 40°40' W 074°00'6 5.6
2015-Jan-21 05:33N 40°39' W 074°07'0 0.0
2015-Jan-21 03:05N 40°38' W 074°07'0 0.0
2015-Jan-21 02:32N 40°38' W 074°07'0 0.0
2015-Jan-20 23:33N 40°38' W 074°07'0 0.2
2015-Jan-20 22:32N 40°39' W 074°07'0 0.0
2015-Jan-20 21:33N 40°39' W 074°07'3 2.9
2015-Jan-20 20:33N 40°39' W 074°03'2 2.4
2015-Jan-20 19:33N 40°40' W 074°00'5 5.3
2015-Jan-20 18:33N 40°39' W 074°07'0 0.0
2015-Jan-20 15:30N 40°39' W 074°07'5 5.6
2015-Jan-20 14:33N 40°40' W 074°00'5 4.5
2015-Jan-20 13:33N 40°39' W 074°06'2 2.2
2015-Jan-20 12:33N 40°40' W 074°08'2 1.7
2015-Jan-20 11:33N 40°39' W 074°08'0 0.4
2015-Jan-20 10:17N 40°38' W 074°07'0 0.0
2015-Jan-20 00:07N 40°38' W 074°07'0 0.1
2015-Jan-19 21:33N 40°39' W 074°08'2 1.8
2015-Jan-19 20:32N 40°40' W 074°08'1 1.3
2015-Jan-19 19:33N 40°41' W 074°09'0 0.0
2015-Jan-19 18:33N 40°41' W 074°09'0 0.0
2015-Jan-19 17:33N 40°41' W 074°09'0 0.0
2015-Jan-19 16:33N 40°41' W 074°09'0 0.0
2015-Jan-19 15:33N 40°41' W 074°09'0 0.0
2015-Jan-19 14:33N 40°41' W 074°09'0 0.0
2015-Jan-19 13:33N 40°41' W 074°09'0 0.0
2015-Jan-19 12:33N 40°41' W 074°09'0 0.0
2015-Jan-19 11:33N 40°41' W 074°09'0 0.0
2015-Jan-19 10:33N 40°41' W 074°09'0 0.0
2015-Jan-19 09:32N 40°41' W 074°09'0 0.0
2015-Jan-19 08:32N 40°41' W 074°09'0 0.0
2015-Jan-19 07:31N 40°41' W 074°09'0 0.0
2015-Jan-19 06:32N 40°41' W 074°09'0 0.1
2015-Jan-19 05:33N 40°41' W 074°09'3 3.1
2015-Jan-19 04:33N 40°39' W 074°07'3 3.3
2015-Jan-19 03:33N 40°40' W 074°03'3 2.9
2015-Jan-19 02:33N 40°37' W 074°04'0 0.2
2015-Jan-19 01:33N 40°38' W 074°04'0 0.1
2015-Jan-19 00:33N 40°38' W 074°04'0 0.0
2015-Jan-18 23:33N 40°38' W 074°04'0 0.0
2015-Jan-18 22:33N 40°38' W 074°04'0 0.1
2015-Jan-18 21:33N 40°38' W 074°04'0 0.4
2015-Jan-18 20:33N 40°38' W 074°04'0 0.1
2015-Jan-18 19:33N 40°38' W 074°04'0 0.1
2015-Jan-18 18:33N 40°38' W 074°04'0 0.0
2015-Jan-18 17:33N 40°38' W 074°04'0 0.0
2015-Jan-18 16:33N 40°38' W 074°04'2 2.4
2015-Jan-18 15:33N 40°39' W 074°06'0 0.0
2015-Jan-18 14:33N 40°39' W 074°06'1 1.4
2015-Jan-18 13:33N 40°39' W 074°08'3 0.9
2015-Jan-18 10:32N 40°41' W 074°09'0 0.0
2015-Jan-18 09:33N 40°41' W 074°09'0 0.1
2015-Jan-18 08:19N 40°41' W 074°09'0 0.0
2015-Jan-18 07:33N 40°41' W 074°09'0 0.0
2015-Jan-18 06:14N 40°41' W 074°09'0 0.1
2015-Jan-18 04:30N 40°41' W 074°09'3 3.1
2015-Jan-18 03:32N 40°39' W 074°06'1 0.1
2015-Jan-17 19:17N 40°39' W 074°07'0 0.2
2015-Jan-17 18:33N 40°39' W 074°07'0 0.0
2015-Jan-17 17:33N 40°39' W 074°07'0 0.0
2015-Jan-17 16:27N 40°39' W 074°07'5 5.8
2015-Jan-17 15:33N 40°40' W 074°00'0 0.0
2015-Jan-17 14:33N 40°40' W 074°00'0 0.0
2015-Jan-17 13:33N 40°40' W 074°00'2 1.7
2015-Jan-17 12:33N 40°39' W 074°02'1 1.3
2015-Jan-17 11:33N 40°38' W 074°04'3 2.5
2015-Jan-17 10:33N 40°40' W 074°01'3 2.6
2015-Jan-17 09:33N 40°38' W 074°03'2 1.5
2015-Jan-17 08:33N 40°39' W 074°04'2 1.0
2015-Jan-17 06:24N 40°39' W 074°07'3 3.4
2015-Jan-17 05:33N 40°37' W 074°04'3 2.3
2015-Jan-17 04:25N 40°39' W 074°06'1 0.6
2015-Jan-17 03:33N 40°39' W 074°07'5 5.1
2015-Jan-17 02:33N 40°40' W 074°00'0 0.0
2015-Jan-17 01:33N 40°40' W 074°00'0 0.0
2015-Jan-17 00:33N 40°40' W 074°00'0 0.0
2015-Jan-16 23:33N 40°40' W 074°00'0 0.0
2015-Jan-16 22:33N 40°40' W 074°00'0 0.0
2015-Jan-16 21:33N 40°40' W 074°00'0 0.0
2015-Jan-16 20:33N 40°40' W 074°00'0 0.0
2015-Jan-16 19:33N 40°40' W 074°00'0 0.1
2015-Jan-16 18:33N 40°40' W 074°00'4 3.8
2015-Jan-16 17:33N 40°39' W 074°05'4 3.6
2015-Jan-16 16:33N 40°41' W 074°09'3 2.9
2015-Jan-16 15:33N 40°39' W 074°07'5 4.9
2015-Jan-16 14:33N 40°40' W 074°00'2 1.8
2015-Jan-16 13:33N 40°40' W 074°03'2 1.8
2015-Jan-16 12:33N 40°40' W 074°00'4 3.7
2015-Jan-16 11:33N 40°39' W 074°05'2 0.8
2015-Jan-16 09:29N 40°38' W 074°07'2 0.6
2015-Jan-16 06:33N 40°39' W 074°05'1 0.5
2015-Jan-16 05:33N 40°39' W 074°06'4 3.5
2015-Jan-16 04:33N 40°42' W 074°09'0 0.1
2015-Jan-16 03:33N 40°42' W 074°09'0 0.0
2015-Jan-16 02:33N 40°42' W 074°09'0 0.0
2015-Jan-16 01:19N 40°42' W 074°09'0 0.2
2015-Jan-16 00:33N 40°42' W 074°08'1 0.6
2015-Jan-15 23:12N 40°41' W 074°10'0 0.0
2015-Jan-15 22:22N 40°41' W 074°10'0 0.0
2015-Jan-15 20:33N 40°41' W 074°10'1 1.5
2015-Jan-15 19:33N 40°40' W 074°08'6 5.6
2015-Jan-15 18:30N 40°35' W 074°12'4 3.9
2015-Jan-15 17:33N 40°39' W 074°11'  
Track history (hours):
 
Tides and Currents Weather Stations Pressure Air Temp Water Temp Dewpoint Dewpoint Depression Visibility Wind Speed Wind Dir Waves Ship Positions

Emerald Coast

Owner: Dann Marine Towing, LC, Chesapeake City, MD. More information available from US FCC via Universal Licensing System and Coast Guard Vessel Documentation Center.

Last reported at 2015-Jan-25 17:29 UTC. Time now 2015-Jan-25 20:26 UTC.
Position N 40°41' W 074°08'.

Length 120 m; draft 3 m.

Type: Towing. MMSI: 367097920.

Date/timePositionNaut miles runAvg speedWind from/ knotsBaromVisibWave heightAir tempDewpointWater temp
2015-Jan-25 17:29N 40°41' W 074°08'3 3.3
2015-Jan-25 16:33N 40°39' W 074°06'1 1.4
2015-Jan-25 15:33N 40°40' W 074°05'0 0.0
2015-Jan-25 14:33N 40°40' W 074°05'0 0.0
2015-Jan-25 13:33N 40°40' W 074°05'0 0.0
2015-Jan-25 12:33N 40°40' W 074°05'3 3.2
2015-Jan-25 11:33N 40°40' W 074°00'3 3.3
2015-Jan-25 10:33N 40°38' W 074°04'0 0.0
2015-Jan-25 09:33N 40°38' W 074°04'0 0.0
2015-Jan-25 08:33N 40°38' W 074°04'0 0.0
2015-Jan-25 07:33N 40°38' W 074°04'0 0.2
2015-Jan-25 06:33N 40°38' W 074°04'0 0.1
2015-Jan-25 05:33N 40°38' W 074°04'0 0.0
2015-Jan-25 04:33N 40°38' W 074°04'0 0.1
2015-Jan-25 03:33N 40°38' W 074°04'1 1.4
2015-Jan-25 02:33N 40°39' W 074°05'2 0.4
2015-Jan-24 21:31N 40°38' W 074°07'0 0.0
2015-Jan-24 19:20N 40°38' W 074°07'0 0.0
2015-Jan-24 18:26N 40°38' W 074°07'0 0.1
2015-Jan-24 17:31N 40°39' W 074°07'2 2.1
2015-Jan-24 16:33N 40°39' W 074°05'1 1.2
2015-Jan-24 15:33N 40°39' W 074°06'3 2.7
2015-Jan-24 14:33N 40°40' W 074°03'2 1.8
2015-Jan-24 13:33N 40°38' W 074°03'0 0.1
2015-Jan-24 12:33N 40°38' W 074°03'0 0.3
2015-Jan-24 11:33N 40°38' W 074°03'0 0.0
2015-Jan-24 10:33N 40°38' W 074°03'0 0.0
2015-Jan-24 09:33N 40°38' W 074°03'2 2.0
2015-Jan-24 08:33N 40°39' W 074°05'1 0.2
2015-Jan-24 03:30N 40°39' W 074°06'2 2.2
2015-Jan-24 02:33N 40°40' W 074°04'0 0.0
2015-Jan-24 01:33N 40°40' W 074°04'0 0.0
2015-Jan-24 00:33N 40°40' W 074°04'2 1.5
2015-Jan-23 23:33N 40°39' W 074°03'0 0.1
2015-Jan-23 22:32N 40°39' W 074°03'0 0.0
2015-Jan-23 21:33N 40°39' W 074°03'0 0.0
2015-Jan-23 20:33N 40°39' W 074°03'3 2.4
2015-Jan-23 19:28N 40°39' W 074°06'1 0.2
2015-Jan-23 16:08N 40°38' W 074°07'0 0.1
2015-Jan-23 15:19N 40°39' W 074°07'2 2.4
2015-Jan-23 14:33N 40°39' W 074°05'2 1.7
2015-Jan-23 13:33N 40°38' W 074°04'0 0.1
2015-Jan-23 12:33N 40°38' W 074°04'2 1.8
2015-Jan-23 11:33N 40°39' W 074°05'2 2.1
2015-Jan-23 10:33N 40°38' W 074°03'1 0.9
2015-Jan-23 09:33N 40°38' W 074°04'0 0.0
2015-Jan-23 08:33N 40°38' W 074°04'0 0.0
2015-Jan-23 07:33N 40°38' W 074°04'0 0.0
2015-Jan-23 06:33N 40°38' W 074°04'1 0.6
2015-Jan-23 05:33N 40°38' W 074°03'2 2.3
2015-Jan-23 04:33N 40°40' W 074°01'3 2.8
2015-Jan-23 03:33N 40°38' W 074°04'0 0.3
2015-Jan-23 02:33N 40°38' W 074°04'0 0.2
2015-Jan-23 01:33N 40°38' W 074°04'1 0.7
2015-Jan-23 00:33N 40°38' W 074°04'2 2.4
2015-Jan-22 23:33N 40°39' W 074°07'0 0.0
2015-Jan-21 15:16N 40°39' W 074°07'3 4.7
2015-Jan-21 14:33N 40°42' W 074°09'3 3.2
2015-Jan-21 13:33N 40°39' W 074°07'5 5.2
2015-Jan-21 12:33N 40°40' W 074°01'4 4.4
2015-Jan-21 11:33N 40°39' W 074°06'5 5.2
2015-Jan-21 10:32N 40°36' W 074°12'4 1.9
2015-Jan-21 08:33N 40°39' W 074°08'3 3.1
2015-Jan-21 07:33N 40°39' W 074°04'3 3.4
2015-Jan-21 06:33N 40°40' W 074°00'6 5.6
2015-Jan-21 05:33N 40°39' W 074°07'0 0.0
2015-Jan-21 03:05N 40°38' W 074°07'0 0.0
2015-Jan-21 02:32N 40°38' W 074°07'0 0.0
2015-Jan-20 23:33N 40°38' W 074°07'0 0.2
2015-Jan-20 22:32N 40°39' W 074°07'0 0.0
2015-Jan-20 21:33N 40°39' W 074°07'3 2.9
2015-Jan-20 20:33N 40°39' W 074°03'2 2.4
2015-Jan-20 19:33N 40°40' W 074°00'5 5.3
2015-Jan-20 18:33N 40°39' W 074°07'0 0.0
2015-Jan-20 15:30N 40°39' W 074°07'5 5.6
2015-Jan-20 14:33N 40°40' W 074°00'5 4.5
2015-Jan-20 13:33N 40°39' W 074°06'2 2.2
2015-Jan-20 12:33N 40°40' W 074°08'2 1.7
2015-Jan-20 11:33N 40°39' W 074°08'0 0.4
2015-Jan-20 10:17N 40°38' W 074°07'0 0.0
2015-Jan-20 00:07N 40°38' W 074°07'0 0.1
2015-Jan-19 21:33N 40°39' W 074°08'2 1.8
2015-Jan-19 20:32N 40°40' W 074°08'1 1.3
2015-Jan-19 19:33N 40°41' W 074°09'0 0.0
2015-Jan-19 18:33N 40°41' W 074°09'0 0.0
2015-Jan-19 17:33N 40°41' W 074°09'0 0.0
2015-Jan-19 16:33N 40°41' W 074°09'0 0.0
2015-Jan-19 15:33N 40°41' W 074°09'0 0.0
2015-Jan-19 14:33N 40°41' W 074°09'0 0.0
2015-Jan-19 13:33N 40°41' W 074°09'0 0.0
2015-Jan-19 12:33N 40°41' W 074°09'0 0.0
2015-Jan-19 11:33N 40°41' W 074°09'0 0.0
2015-Jan-19 10:33N 40°41' W 074°09'0 0.0
2015-Jan-19 09:32N 40°41' W 074°09'0 0.0
2015-Jan-19 08:32N 40°41' W 074°09'0 0.0
2015-Jan-19 07:31N 40°41' W 074°09'0 0.0
2015-Jan-19 06:32N 40°41' W 074°09'0 0.1
2015-Jan-19 05:33N 40°41' W 074°09'3 3.1
2015-Jan-19 04:33N 40°39' W 074°07'3 3.3
2015-Jan-19 03:33N 40°40' W 074°03'3 2.9
2015-Jan-19 02:33N 40°37' W 074°04'0 0.2
2015-Jan-19 01:33N 40°38' W 074°04'0 0.1
2015-Jan-19 00:33N 40°38' W 074°04'0 0.0
2015-Jan-18 23:33N 40°38' W 074°04'0 0.0
2015-Jan-18 22:33N 40°38' W 074°04'0 0.1
2015-Jan-18 21:33N 40°38' W 074°04'0 0.4
2015-Jan-18 20:33N 40°38' W 074°04'0 0.1
2015-Jan-18 19:33N 40°38' W 074°04'0 0.1
2015-Jan-18 18:33N 40°38' W 074°04'0 0.0
2015-Jan-18 17:33N 40°38' W 074°04'0 0.0
2015-Jan-18 16:33N 40°38' W 074°04'2 2.4
2015-Jan-18 15:33N 40°39' W 074°06'0 0.0
2015-Jan-18 14:33N 40°39' W 074°06'1 1.4
2015-Jan-18 13:33N 40°39' W 074°08'3 0.9
2015-Jan-18 10:32N 40°41' W 074°09'0 0.0
2015-Jan-18 09:33N 40°41' W 074°09'0 0.1
2015-Jan-18 08:19N 40°41' W 074°09'0 0.0
2015-Jan-18 07:33N 40°41' W 074°09'0 0.0
2015-Jan-18 06:14N 40°41' W 074°09'0 0.1
2015-Jan-18 04:30N 40°41' W 074°09'3 3.1
2015-Jan-18 03:32N 40°39' W 074°06'1 0.1
2015-Jan-17 19:17N 40°39' W 074°07'0 0.2
2015-Jan-17 18:33N 40°39' W 074°07'0 0.0
2015-Jan-17 17:33N 40°39' W 074°07'0 0.0
2015-Jan-17 16:27N 40°39' W 074°07'5 5.8
2015-Jan-17 15:33N 40°40' W 074°00'0 0.0
2015-Jan-17 14:33N 40°40' W 074°00'0 0.0
2015-Jan-17 13:33N 40°40' W 074°00'2 1.7
2015-Jan-17 12:33N 40°39' W 074°02'1 1.3
2015-Jan-17 11:33N 40°38' W 074°04'3 2.5
2015-Jan-17 10:33N 40°40' W 074°01'3 2.6
2015-Jan-17 09:33N 40°38' W 074°03'2 1.5
2015-Jan-17 08:33N 40°39' W 074°04'2 1.0
2015-Jan-17 06:24N 40°39' W 074°07'3 3.4
2015-Jan-17 05:33N 40°37' W 074°04'3 2.3
2015-Jan-17 04:25N 40°39' W 074°06'1 0.6
2015-Jan-17 03:33N 40°39' W 074°07'5 5.1
2015-Jan-17 02:33N 40°40' W 074°00'0 0.0
2015-Jan-17 01:33N 40°40' W 074°00'0 0.0
2015-Jan-17 00:33N 40°40' W 074°00'0 0.0
2015-Jan-16 23:33N 40°40' W 074°00'0 0.0
2015-Jan-16 22:33N 40°40' W 074°00'0 0.0
2015-Jan-16 21:33N 40°40' W 074°00'0 0.0
2015-Jan-16 20:33N 40°40' W 074°00'0 0.0
2015-Jan-16 19:33N 40°40' W 074°00'0 0.1
2015-Jan-16 18:33N 40°40' W 074°00'4 3.8
2015-Jan-16 17:33N 40°39' W 074°05'4 3.6
2015-Jan-16 16:33N 40°41' W 074°09'3 2.9
2015-Jan-16 15:33N 40°39' W 074°07'5 4.9
2015-Jan-16 14:33N 40°40' W 074°00'2 1.8
2015-Jan-16 13:33N 40°40' W 074°03'2 1.8
2015-Jan-16 12:33N 40°40' W 074°00'4 3.7
2015-Jan-16 11:33N 40°39' W 074°05'2 0.8
2015-Jan-16 09:29N 40°38' W 074°07'2 0.6
2015-Jan-16 06:33N 40°39' W 074°05'1 0.5
2015-Jan-16 05:33N 40°39' W 074°06'4 3.5
2015-Jan-16 04:33N 40°42' W 074°09'0 0.1
2015-Jan-16 03:33N 40°42' W 074°09'0 0.0
2015-Jan-16 02:33N 40°42' W 074°09'0 0.0
2015-Jan-16 01:19N 40°42' W 074°09'0 0.2
2015-Jan-16 00:33N 40°42' W 074°08'1 0.6
2015-Jan-15 23:12N 40°41' W 074°10'0 0.0
2015-Jan-15 22:22N 40°41' W 074°10'0 0.0
2015-Jan-15 20:33N 40°41' W 074°10'1 1.5
2015-Jan-15 19:33N 40°40' W 074°08'6 5.6
2015-Jan-15 18:30N 40°35' W 074°12'4 3.9
2015-Jan-15 17:33N 40°39' W 074°11'  

Dump ship's entire track history